createdAt,value
2018-03-06T00:00:17.794Z,23.93
2018-03-06T00:03:26.654Z,25.60
2018-03-06T00:06:35.793Z,21.80
2018-03-06T00:09:46.681Z,23.13
2018-03-06T00:12:54.693Z,22.60
2018-03-06T00:16:03.193Z,20.43
2018-03-06T00:19:10.547Z,18.60
2018-03-06T00:22:20.083Z,22.33
2018-03-06T00:25:28.708Z,27.77
2018-03-06T00:28:34.893Z,30.20
2018-03-06T00:31:40.798Z,29.77
2018-03-06T00:34:48.080Z,24.00
2018-03-06T00:38:02.156Z,22.23
2018-03-06T00:41:07.729Z,21.30
2018-03-06T00:44:13.547Z,21.07
2018-03-06T00:47:20.313Z,25.53
2018-03-06T00:50:27.319Z,26.37
2018-03-06T00:53:34.600Z,25.10
2018-03-06T00:56:43.132Z,21.70
2018-03-06T00:59:49.653Z,25.77
2018-03-06T01:02:55.393Z,24.03
2018-03-06T01:06:01.422Z,22.57
2018-03-06T01:09:06.961Z,27.53
2018-03-06T01:12:12.827Z,24.77
2018-03-06T01:15:19.249Z,23.50
2018-03-06T01:18:24.870Z,25.10
2018-03-06T01:21:30.704Z,23.37
2018-03-06T01:24:36.267Z,24.13
2018-03-06T01:27:46.917Z,23.90
2018-03-06T01:30:52.555Z,30.70
2018-03-06T01:33:58.541Z,21.93
2018-03-06T01:37:04.396Z,24.70
2018-03-06T01:40:09.927Z,25.50
2018-03-06T01:43:16.319Z,20.57
2018-03-06T01:46:22.068Z,26.20
2018-03-06T01:49:28.873Z,26.50
2018-03-06T01:52:34.403Z,18.57
2018-03-06T01:55:41.754Z,22.73
2018-03-06T01:58:47.283Z,25.87
2018-03-06T02:01:52.866Z,22.57
2018-03-06T02:05:00.182Z,20.73
2018-03-06T02:08:05.715Z,21.57
2018-03-06T02:11:11.142Z,29.27
2018-03-06T02:14:16.686Z,23.03
2018-03-06T02:17:22.537Z,22.40
2018-03-06T02:20:28.099Z,25.40
2018-03-06T02:23:34.089Z,28.93
2018-03-06T02:26:39.625Z,25.30
2018-03-06T02:29:45.889Z,22.83
2018-03-06T02:32:53.427Z,26.37
2018-03-06T02:36:02.070Z,25.63
2018-03-06T02:39:07.832Z,30.57
2018-03-06T02:42:13.628Z,27.40
2018-03-06T02:45:19.227Z,25.60
2018-03-06T02:48:24.956Z,23.77
2018-03-06T02:51:30.529Z,23.50
2018-03-06T02:54:36.673Z,28.00
2018-03-06T02:57:45.352Z,27.90
2018-03-06T03:00:51.761Z,31.30
2018-03-06T03:03:57.313Z,29.73
2018-03-06T03:07:03.104Z,31.83
2018-03-06T03:10:08.637Z,27.47
2018-03-06T03:13:14.196Z,29.87
2018-03-06T03:19:29.280Z,28.60
2018-03-06T03:22:34.853Z,29.60
2018-03-06T03:25:40.267Z,33.27
2018-03-06T03:28:45.822Z,34.30
2018-03-06T03:31:51.624Z,38.10
2018-03-06T03:34:57.527Z,33.07
2018-03-06T03:38:03.281Z,33.30
2018-03-06T03:41:08.848Z,38.30
2018-03-06T03:44:14.421Z,38.30
2018-03-06T03:47:19.982Z,34.97
2018-03-06T03:50:25.794Z,35.17
2018-03-06T03:53:31.366Z,39.07
2018-03-06T03:56:36.901Z,40.67
2018-03-06T03:59:42.699Z,39.40
2018-03-06T04:02:48.273Z,42.57
2018-03-06T04:05:53.853Z,45.80
2018-03-06T04:08:59.400Z,40.40
2018-03-06T04:12:04.768Z,47.77
2018-03-06T04:15:10.342Z,39.93
2018-03-06T04:21:26.489Z,48.40
2018-03-06T04:24:32.042Z,54.50
2018-03-06T04:27:37.641Z,43.03
2018-03-06T04:30:43.185Z,45.40
2018-03-06T04:33:48.756Z,48.80
2018-03-06T04:36:54.292Z,47.47
2018-03-06T04:40:00.086Z,45.53
2018-03-06T04:43:05.867Z,49.47
2018-03-06T04:46:11.409Z,42.27
2018-03-06T04:49:16.989Z,52.83
2018-03-06T04:52:22.529Z,46.17
2018-03-06T04:55:28.321Z,45.20
2018-03-06T04:58:33.588Z,50.90
2018-03-06T05:01:39.188Z,52.33
2018-03-06T05:04:44.733Z,44.47
2018-03-06T05:07:50.550Z,44.57
2018-03-06T05:10:56.148Z,40.00
2018-03-06T05:14:01.689Z,48.60
2018-03-06T05:17:07.273Z,50.50
2018-03-06T05:20:13.530Z,50.90
2018-03-06T05:23:19.103Z,55.67
2018-03-06T05:26:24.848Z,47.23
2018-03-06T05:29:30.433Z,52.90
2018-03-06T05:32:36.033Z,58.93
2018-03-06T05:35:41.858Z,64.47
2018-03-06T05:38:47.384Z,56.47
2018-03-06T05:41:52.944Z,53.93
2018-03-06T05:44:58.764Z,50.07
2018-03-06T05:48:04.314Z,52.13
2018-03-06T05:51:14.093Z,52.50
2018-03-06T05:58:00.166Z,57.27
2018-03-06T06:01:05.980Z,54.97
2018-03-06T06:04:34.111Z,49.50
2018-03-06T06:07:44.092Z,51.90
2018-03-06T06:10:49.896Z,54.37
2018-03-06T06:13:55.824Z,65.17
2018-03-06T06:17:05.860Z,57.17
2018-03-06T06:20:12.764Z,54.77
2018-03-06T06:23:18.624Z,54.70
2018-03-06T06:26:24.196Z,51.80
2018-03-06T06:29:29.702Z,61.10
2018-03-06T06:32:35.254Z,54.97
2018-03-06T06:35:40.809Z,54.43
2018-03-06T06:38:46.317Z,54.57
2018-03-06T06:41:51.864Z,55.17
2018-03-06T06:44:57.373Z,54.30
2018-03-06T06:48:02.925Z,52.77
2018-03-06T06:51:08.436Z,51.13
2018-03-06T06:54:13.759Z,56.20
2018-03-06T06:57:19.313Z,55.17
2018-03-06T07:00:24.865Z,51.37
2018-03-06T07:03:30.431Z,59.57
2018-03-06T07:06:35.985Z,51.93
2018-03-06T07:09:41.486Z,61.40
2018-03-06T07:12:47.037Z,60.20
2018-03-06T07:15:52.596Z,64.30
2018-03-06T07:18:58.157Z,57.27
2018-03-06T07:22:03.675Z,55.13
2018-03-06T07:25:09.220Z,66.03
2018-03-06T07:28:14.773Z,59.60
2018-03-06T07:31:20.278Z,63.07
2018-03-06T07:34:25.833Z,62.73
2018-03-06T07:37:31.336Z,60.37
2018-03-06T07:40:36.910Z,59.13
2018-03-06T07:43:42.421Z,56.80
2018-03-06T07:46:47.993Z,62.47
2018-03-06T07:49:53.500Z,57.37
2018-03-06T07:52:59.045Z,68.53
2018-03-06T07:56:04.602Z,62.43
2018-03-06T07:59:10.159Z,64.63
2018-03-06T08:02:15.677Z,57.30
2018-03-06T08:05:21.237Z,60.27
2018-03-06T08:08:26.745Z,57.83
2018-03-06T08:11:32.305Z,62.53
2018-03-06T08:14:37.817Z,64.33
2018-03-06T08:17:43.357Z,62.33
2018-03-06T08:20:48.910Z,60.07
2018-03-06T08:23:54.550Z,65.53
2018-03-06T08:27:00.062Z,59.67
2018-03-06T08:30:05.632Z,59.70
2018-03-06T08:33:11.137Z,64.13
2018-03-06T08:36:16.688Z,64.47
2018-03-06T08:39:22.265Z,70.20
2018-03-06T08:42:27.842Z,64.57
2018-03-06T08:45:33.429Z,58.10
2018-03-06T08:48:38.932Z,65.03
2018-03-06T08:51:44.465Z,56.80
2018-03-06T08:54:50.003Z,64.60
2018-03-06T08:57:55.362Z,62.33
2018-03-06T09:01:00.927Z,67.27
2018-03-06T09:04:06.421Z,65.30
2018-03-06T09:07:12.012Z,64.67
2018-03-06T09:10:17.277Z,72.80
2018-03-06T09:13:22.840Z,62.13
2018-03-06T09:16:28.394Z,62.50
2018-03-06T09:19:33.940Z,60.40
2018-03-06T09:22:39.429Z,66.23
2018-03-06T09:25:44.966Z,65.97
2018-03-06T09:28:50.519Z,58.30
2018-03-06T09:31:56.013Z,62.73
2018-03-06T09:35:01.554Z,67.57
2018-03-06T09:38:07.097Z,61.57
2018-03-06T09:41:12.596Z,69.97
2018-03-06T09:44:18.125Z,71.97
2018-03-06T09:47:23.661Z,59.70
2018-03-06T09:50:29.205Z,60.63
2018-03-06T09:53:34.758Z,64.90
2018-03-06T09:56:40.105Z,63.80
2018-03-06T09:59:45.645Z,60.00
2018-03-06T10:02:51.142Z,74.63
2018-03-06T10:05:56.701Z,64.07
2018-03-06T10:09:02.193Z,62.03
2018-03-06T10:12:07.484Z,67.27
2018-03-06T10:15:12.993Z,70.57
2018-03-06T10:18:18.540Z,61.77
2018-03-06T10:21:24.069Z,63.87
2018-03-06T10:24:29.610Z,64.77
2018-03-06T10:27:35.117Z,62.80
2018-03-06T10:30:40.652Z,68.47
2018-03-06T10:33:46.201Z,72.50
2018-03-06T10:36:51.748Z,66.87
2018-03-06T10:39:57.302Z,65.60
2018-03-06T10:43:02.816Z,61.93
2018-03-06T10:46:08.591Z,65.43
2018-03-06T10:49:14.149Z,64.00
2018-03-06T10:52:19.651Z,64.00
2018-03-06T10:55:24.896Z,59.20
2018-03-06T10:58:30.454Z,73.30
2018-03-06T11:01:36.985Z,72.17
2018-03-06T11:04:42.503Z,67.00
2018-03-06T11:07:48.049Z,73.87
2018-03-06T11:10:53.552Z,63.97
2018-03-06T11:13:59.094Z,58.87
2018-03-06T11:17:04.602Z,68.67
2018-03-06T11:20:10.149Z,61.33
2018-03-06T11:23:15.665Z,56.30
2018-03-06T11:26:21.346Z,57.97
2018-03-06T11:29:26.889Z,62.47
2018-03-06T11:32:32.389Z,57.40
2018-03-06T11:35:37.922Z,60.33
2018-03-06T11:38:43.470Z,61.83
2018-03-06T11:41:48.997Z,62.77
2018-03-06T11:44:54.561Z,64.37
2018-03-06T11:48:00.063Z,59.77
2018-03-06T11:51:05.463Z,62.83
2018-03-06T11:54:11.002Z,59.00
2018-03-06T11:57:16.555Z,64.10
2018-03-06T12:00:22.118Z,60.17
2018-03-06T12:03:27.632Z,62.17
2018-03-06T12:06:33.194Z,56.87
2018-03-06T12:09:38.713Z,63.90
2018-03-06T12:12:44.296Z,63.63
2018-03-06T12:15:49.954Z,55.13
2018-03-06T12:18:55.466Z,58.40
2018-03-06T12:22:01.027Z,57.77
2018-03-06T12:25:06.545Z,49.27
2018-03-06T12:28:12.084Z,58.83
2018-03-06T12:31:17.629Z,57.93
2018-03-06T12:34:23.195Z,56.80
2018-03-06T12:37:28.742Z,56.10
2018-03-06T12:40:34.025Z,58.57
2018-03-06T12:43:39.578Z,52.33
2018-03-06T12:46:45.084Z,52.23
2018-03-06T12:49:50.652Z,53.57
2018-03-06T12:52:56.265Z,55.20
2018-03-06T12:56:01.800Z,55.50
2018-03-06T12:59:07.306Z,64.93
2018-03-06T13:02:12.853Z,55.47
2018-03-06T13:05:18.389Z,53.07
2018-03-06T13:08:23.929Z,56.40
2018-03-06T13:11:29.450Z,61.20
2018-03-06T13:14:34.992Z,62.40
2018-03-06T13:17:46.693Z,66.77
2018-03-06T13:20:52.229Z,62.63
2018-03-06T13:23:57.733Z,63.40
2018-03-06T13:27:03.298Z,58.97
2018-03-06T13:30:08.792Z,58.73
2018-03-06T13:33:14.344Z,59.90
2018-03-06T13:36:19.844Z,66.77
2018-03-06T13:39:25.426Z,59.83
2018-03-06T13:42:30.953Z,67.63
2018-03-06T13:45:36.506Z,57.00
2018-03-06T13:48:42.071Z,66.30
2018-03-06T13:51:47.642Z,65.50
2018-03-06T13:54:53.192Z,58.67
2018-03-06T13:57:58.699Z,65.60
2018-03-06T14:01:04.261Z,61.67
2018-03-06T14:04:09.771Z,57.97
2018-03-06T14:07:15.317Z,61.70
2018-03-06T14:10:20.864Z,64.33
2018-03-06T14:13:26.369Z,60.90
2018-03-06T14:16:31.916Z,64.23
2018-03-06T14:19:37.481Z,69.60
2018-03-06T14:22:43.027Z,62.00
2018-03-06T14:25:48.528Z,65.43
2018-03-06T14:28:54.073Z,66.77
2018-03-06T14:31:59.573Z,57.57
2018-03-06T14:35:04.858Z,57.00
2018-03-06T14:38:10.367Z,56.70
2018-03-06T14:41:15.908Z,59.83
2018-03-06T14:44:21.412Z,60.20
2018-03-06T14:47:26.960Z,55.23
2018-03-06T14:50:32.462Z,51.80
2018-03-06T14:53:38.022Z,57.43
2018-03-06T14:56:43.525Z,54.47
2018-03-06T14:59:49.071Z,59.53
2018-03-06T15:02:54.621Z,56.97
2018-03-06T15:06:00.120Z,60.80
2018-03-06T15:09:05.182Z,56.90
2018-03-06T15:12:10.688Z,56.33
2018-03-06T15:15:16.250Z,62.30
2018-03-06T15:18:21.792Z,56.13
2018-03-06T15:21:27.326Z,55.03
2018-03-06T15:24:32.830Z,59.00
2018-03-06T15:27:42.933Z,57.10
2018-03-06T15:30:48.473Z,55.50
2018-03-06T15:33:53.998Z,58.03
2018-03-06T15:36:59.535Z,62.80
2018-03-06T15:40:05.051Z,67.17
2018-03-06T15:43:10.622Z,58.43
2018-03-06T15:46:16.125Z,58.30
2018-03-06T15:49:25.562Z,62.73
2018-03-06T15:52:35.688Z,66.50
2018-03-06T15:55:44.538Z,68.03
2018-03-06T15:58:50.091Z,59.60
2018-03-06T16:01:55.591Z,66.00
2018-03-06T16:05:07.112Z,57.50
2018-03-06T16:08:30.137Z,66.50
2018-03-06T16:11:53.880Z,60.27
2018-03-06T16:19:12.062Z,60.80
2018-03-06T16:22:41.646Z,63.37
2018-03-06T16:26:22.489Z,57.00
2018-03-06T16:29:48.262Z,54.93
2018-03-06T16:33:14.744Z,56.17
2018-03-06T16:36:43.070Z,55.67
2018-03-06T16:40:09.533Z,64.67
2018-03-06T16:43:36.345Z,58.73
2018-03-06T16:46:58.074Z,55.73
2018-03-06T16:50:23.032Z,50.90
2018-03-06T16:53:43.585Z,63.50
2018-03-06T16:57:24.057Z,55.47
2018-03-06T17:00:45.547Z,63.57
2018-03-06T17:07:53.898Z,55.87
2018-03-06T17:14:52.504Z,57.17
2018-03-06T17:18:20.583Z,59.80
2018-03-06T17:21:44.523Z,61.77
2018-03-06T17:25:16.506Z,63.57
2018-03-06T17:28:43.078Z,66.27
2018-03-06T17:32:22.800Z,66.60
2018-03-06T17:35:47.397Z,59.40
2018-03-06T17:39:24.892Z,63.87
2018-03-06T17:42:47.463Z,59.47
2018-03-06T17:46:13.745Z,63.70
2018-03-06T17:49:33.675Z,60.23
2018-03-06T17:52:56.042Z,63.47
2018-03-06T17:56:23.439Z,65.40
2018-03-06T17:59:48.827Z,72.60
2018-03-06T18:03:15.364Z,68.60
2018-03-06T18:06:39.352Z,66.20
2018-03-06T18:10:21.192Z,65.63
2018-03-06T18:14:03.978Z,62.40
2018-03-06T18:17:28.933Z,62.67
2018-03-06T18:20:52.921Z,76.47
2018-03-06T18:24:27.684Z,89.00
2018-03-06T18:27:55.673Z,77.13
2018-03-06T18:31:20.360Z,80.67
2018-03-06T18:34:43.511Z,81.13
2018-03-06T18:38:07.390Z,75.30
2018-03-06T18:41:35.600Z,69.00
2018-03-06T18:45:04.676Z,69.27
2018-03-06T18:48:28.732Z,70.70
2018-03-06T18:52:06.591Z,70.00
2018-03-06T18:55:25.760Z,72.77
2018-03-06T18:58:49.025Z,77.50
2018-03-06T19:02:27.251Z,64.93
2018-03-06T19:05:56.668Z,78.27
2018-03-06T19:09:21.113Z,75.50
2018-03-06T19:12:44.188Z,70.87
2018-03-06T19:16:12.045Z,74.40
2018-03-06T19:19:28.160Z,70.23
2018-03-06T19:22:47.473Z,68.83
2018-03-06T19:26:13.096Z,83.27
2018-03-06T19:29:37.308Z,70.00
2018-03-06T19:33:03.768Z,76.60
2018-03-06T19:36:27.883Z,76.70
2018-03-06T19:39:56.534Z,76.10
2018-03-06T19:43:21.788Z,71.80
2018-03-06T19:47:03.974Z,66.50
2018-03-06T19:50:31.178Z,76.53
2018-03-06T19:54:00.397Z,61.07
2018-03-06T19:57:24.768Z,73.43
2018-03-06T20:01:07.644Z,76.00
2018-03-06T20:04:32.160Z,72.50
2018-03-06T20:08:14.214Z,73.17
2018-03-06T20:11:39.485Z,67.50
2018-03-06T20:15:24.511Z,70.40
2018-03-06T20:18:50.024Z,68.90
2018-03-06T20:22:12.316Z,64.83
2018-03-06T20:25:53.464Z,72.57
2018-03-06T20:29:13.276Z,61.67
2018-03-06T20:32:41.375Z,70.63
2018-03-06T20:36:11.169Z,63.47
2018-03-06T20:39:41.799Z,71.07
2018-03-06T20:43:06.662Z,65.70
2018-03-06T20:46:36.033Z,67.17
2018-03-06T20:49:47.656Z,65.37
2018-03-06T20:53:10.353Z,69.33
2018-03-06T20:56:21.569Z,67.33
2018-03-06T20:59:31.617Z,73.03
2018-03-06T21:02:49.899Z,62.77
2018-03-06T21:06:02.012Z,69.20
2018-03-06T21:09:09.499Z,69.80
2018-03-06T21:12:15.398Z,70.37
2018-03-06T21:15:20.922Z,60.83
2018-03-06T21:18:26.498Z,60.70
2018-03-06T21:21:32.001Z,68.97
2018-03-06T21:24:37.561Z,67.93
2018-03-06T21:27:44.562Z,67.70
2018-03-06T21:30:50.125Z,72.87
2018-03-06T21:33:55.686Z,67.17
2018-03-06T21:37:14.931Z,67.77
2018-03-06T21:40:39.830Z,76.90
2018-03-06T21:43:56.683Z,74.57
2018-03-06T21:47:37.766Z,82.43
2018-03-06T21:51:09.714Z,82.87
2018-03-06T21:54:40.121Z,83.97
2018-03-06T21:58:12.538Z,78.13
2018-03-06T22:01:45.270Z,84.73
2018-03-06T22:04:58.510Z,77.60
2018-03-06T22:08:07.617Z,76.10
2018-03-06T22:11:13.926Z,78.37
2018-03-06T22:14:19.435Z,84.90
2018-03-06T22:17:24.999Z,82.27
2018-03-06T22:20:30.502Z,72.00
2018-03-06T22:23:36.043Z,75.20
2018-03-06T22:26:41.663Z,79.00
2018-03-06T22:29:47.252Z,85.50
2018-03-06T22:32:52.813Z,90.07
2018-03-06T22:35:58.103Z,82.50
2018-03-06T22:39:03.605Z,77.10
2018-03-06T22:42:09.163Z,79.43
2018-03-06T22:45:14.671Z,87.00
2018-03-06T22:48:20.262Z,80.60
2018-03-06T22:51:25.786Z,93.77
2018-03-06T22:54:31.357Z,77.47
2018-03-06T22:57:36.869Z,87.93
2018-03-06T23:00:59.789Z,75.77
2018-03-06T23:04:05.112Z,78.60
2018-03-06T23:07:10.694Z,84.27
2018-03-06T23:10:16.228Z,97.63
2018-03-06T23:13:21.733Z,77.53
2018-03-06T23:16:27.275Z,87.27
2018-03-06T23:19:32.844Z,84.80
2018-03-06T23:22:38.336Z,82.27
2018-03-06T23:25:43.877Z,82.47
2018-03-06T23:28:49.418Z,83.53
2018-03-06T23:31:54.910Z,84.23
2018-03-06T23:35:00.447Z,84.10
2018-03-06T23:38:05.955Z,83.90
2018-03-06T23:41:11.488Z,85.03
2018-03-06T23:44:16.981Z,79.00
2018-03-06T23:47:22.522Z,84.10
2018-03-06T23:50:28.096Z,80.37
2018-03-06T23:53:33.645Z,89.03
2018-03-06T23:56:39.142Z,84.30
2018-03-06T23:59:44.701Z,85.90
